Blanche, Louisiana
Current Conditions -  °F | °C
As of 6:15 PM on Sunday 25 Jan 2015 (Local Time) from KACP Reporting Station
Clear Clear  
Wind Chill: 62°   Ceiling: Unl
Heat Index: 62°   Visibility: 10mi
Dew Point: 37°   Wind: 6mph
Humidity: 38%   Direction: 290°WNW
Pressure: 29.93"   Gusts: NA
Location:  30.9922°N, 92.6266°W
Report Text: KACP 260015Z AUTO 29005KT 10SM CLR 17/03 A2993 RMK AO2 T01680025
Loading
Personal Weather Stations






























Interactive Weather Map New forecast layout! Learn more

10-Day Weather Forecast

Advertisements
Track Severe Weather on mobile